Hebburn, United Kingdom
Current Conditions -  °F | °C
As of 2:20 PM on Tuesday 27 Jan 2015 (Local Time) from EGNT Reporting Station
Broken Clouds Broken Clouds  
Wind Chill: 37°   Ceiling: 1700
Heat Index: 45°   Visibility: 6mi
Dew Point: 39°   Wind: 16mph
Humidity: 81%   Direction: 260°W
Pressure: 30.09"   Gusts: NA
Location:  54.97°N, 1.52°W
Report Text: EGNT 271420Z 26014KT 9999 BKN017 07/04 Q1019
Loading
Personal Weather Stations






























Interactive Weather Map New forecast layout! Learn more

10-Day Weather Forecast

Advertisements
Track Severe Weather on mobile